sensor_id;sensor_type;location;lat;lon;timestamp;P1;durP1;ratioP1;P2;durP2;ratioP2
43154;SDS011;34212;51.018;13.586;2023-05-10T05:03:01;11.68;;;3.50;;
43154;SDS011;34212;51.018;13.586;2023-05-10T05:08:03;4.78;;;3.83;;
43154;SDS011;34212;51.018;13.586;2023-05-10T05:13:05;5.22;;;3.55;;
43154;SDS011;34212;51.018;13.586;2023-05-10T05:23:11;4.10;;;2.60;;
43154;SDS011;34212;51.018;13.586;2023-05-10T05:28:12;2.92;;;2.22;;
43154;SDS011;34212;51.018;13.586;2023-05-10T05:33:14;4.32;;;2.50;;
43154;SDS011;34212;51.018;13.586;2023-05-10T05:38:16;2.55;;;2.10;;
43154;SDS011;34212;51.018;13.586;2023-05-10T05:43:18;3.17;;;2.30;;
43154;SDS011;34212;51.018;13.586;2023-05-10T05:48:20;4.53;;;2.58;;
43154;SDS011;34212;51.018;13.586;2023-05-10T05:53:22;6.97;;;2.42;;
43154;SDS011;34212;51.018;13.586;2023-05-10T05:58:25;2.78;;;2.30;;
43154;SDS011;34212;51.018;13.586;2023-05-10T06:03:27;3.72;;;2.22;;
43154;SDS011;34212;51.018;13.586;2023-05-10T06:08:28;4.40;;;2.30;;
43154;SDS011;34212;51.018;13.586;2023-05-10T06:13:30;4.00;;;2.20;;
43154;SDS011;34212;51.018;13.586;2023-05-10T06:18:34;5.97;;;1.90;;
43154;SDS011;34212;51.018;13.586;2023-05-10T06:23:35;5.03;;;2.50;;
43154;SDS011;34212;51.018;13.586;2023-05-10T06:33:40;3.22;;;2.33;;
43154;SDS011;34212;51.018;13.586;2023-05-10T06:38:41;2.70;;;2.28;;
43154;SDS011;34212;51.018;13.586;2023-05-10T06:43:43;3.97;;;2.20;;
43154;SDS011;34212;51.018;13.586;2023-05-10T06:48:45;2.80;;;1.90;;
43154;SDS011;34212;51.018;13.586;2023-05-10T06:53:46;5.15;;;2.40;;
43154;SDS011;34212;51.018;13.586;2023-05-10T06:58:48;2.97;;;2.43;;
43154;SDS011;34212;51.018;13.586;2023-05-10T07:03:50;4.03;;;2.23;;
43154;SDS011;34212;51.018;13.586;2023-05-10T07:08:51;4.57;;;2.33;;
43154;SDS011;34212;51.018;13.586;2023-05-10T07:13:53;3.53;;;2.33;;
43154;SDS011;34212;51.018;13.586;2023-05-10T07:18:54;2.95;;;2.65;;
43154;SDS011;34212;51.018;13.586;2023-05-10T07:23:56;4.65;;;2.60;;
43154;SDS011;34212;51.018;13.586;2023-05-10T07:28:58;5.60;;;2.67;;
43154;SDS011;34212;51.018;13.586;2023-05-10T07:33:59;6.00;;;2.47;;
43154;SDS011;34212;51.018;13.586;2023-05-10T07:39:01;3.72;;;2.33;;
43154;SDS011;34212;51.018;13.586;2023-05-10T07:44:03;3.05;;;2.50;;
43154;SDS011;34212;51.018;13.586;2023-05-10T07:49:05;3.22;;;2.50;;
43154;SDS011;34212;51.018;13.586;2023-05-10T07:54:09;7.18;;;2.53;;
43154;SDS011;34212;51.018;13.586;2023-05-10T07:59:14;3.90;;;2.77;;
43154;SDS011;34212;51.018;13.586;2023-05-10T08:04:16;3.97;;;2.63;;
43154;SDS011;34212;51.018;13.586;2023-05-10T08:09:18;4.65;;;3.10;;
43154;SDS011;34212;51.018;13.586;2023-05-10T08:14:24;4.50;;;2.88;;
43154;SDS011;34212;51.018;13.586;2023-05-10T08:19:26;5.43;;;2.63;;
43154;SDS011;34212;51.018;13.586;2023-05-10T08:24:27;4.50;;;3.33;;
43154;SDS011;34212;51.018;13.586;2023-05-10T08:29:29;3.30;;;2.65;;
43154;SDS011;34212;51.018;13.586;2023-05-10T08:34:46;3.50;;;2.72;;
43154;SDS011;34212;51.018;13.586;2023-05-10T08:39:51;3.72;;;3.03;;
43154;SDS011;34212;51.018;13.586;2023-05-10T08:44:52;3.27;;;2.57;;
43154;SDS011;34212;51.018;13.586;2023-05-10T08:49:55;5.63;;;2.50;;
43154;SDS011;34212;51.018;13.586;2023-05-10T08:55:00;3.35;;;2.72;;
43154;SDS011;34212;51.018;13.586;2023-05-10T09:00:02;5.75;;;2.88;;
43154;SDS011;34212;51.018;13.586;2023-05-10T09:05:07;8.38;;;2.97;;
43154;SDS011;34212;51.018;13.586;2023-05-10T09:10:10;15.48;;;3.38;;
43154;SDS011;34212;51.018;13.586;2023-05-10T09:15:13;5.63;;;2.70;;
43154;SDS011;34212;51.018;13.586;2023-05-10T09:20:17;10.68;;;3.10;;
43154;SDS011;34212;51.018;13.586;2023-05-10T09:25:31;13.13;;;3.05;;
43154;SDS011;34212;51.018;13.586;2023-05-10T09:30:34;4.70;;;2.92;;
43154;SDS011;34212;51.018;13.586;2023-05-10T09:35:40;4.45;;;2.90;;
43154;SDS011;34212;51.018;13.586;2023-05-10T09:40:42;7.75;;;2.95;;
43154;SDS011;34212;51.018;13.586;2023-05-10T09:45:55;6.93;;;2.78;;
43154;SDS011;34212;51.018;13.586;2023-05-10T09:50:57;3.25;;;2.78;;
43154;SDS011;34212;51.018;13.586;2023-05-10T09:55:59;4.75;;;2.70;;
43154;SDS011;34212;51.018;13.586;2023-05-10T10:01:00;3.97;;;2.67;;
43154;SDS011;34212;51.018;13.586;2023-05-10T10:06:11;3.85;;;2.92;;
43154;SDS011;34212;51.018;13.586;2023-05-10T10:11:30;6.95;;;3.10;;
43154;SDS011;34212;51.018;13.586;2023-05-10T10:16:32;6.17;;;3.23;;
43154;SDS011;34212;51.018;13.586;2023-05-10T10:21:36;3.83;;;2.80;;
43154;SDS011;34212;51.018;13.586;2023-05-10T10:26:38;2.80;;;2.50;;
43154;SDS011;34212;51.018;13.586;2023-05-10T10:37:13;5.80;;;3.58;;
43154;SDS011;34212;51.018;13.586;2023-05-10T10:42:24;9.48;;;2.92;;
43154;SDS011;34212;51.018;13.586;2023-05-10T10:53:22;7.32;;;3.45;;
43154;SDS011;34212;51.018;13.586;2023-05-10T10:58:30;4.15;;;2.85;;
43154;SDS011;34212;51.018;13.586;2023-05-10T11:08:49;4.40;;;3.38;;
43154;SDS011;34212;51.018;13.586;2023-05-10T11:13:51;6.90;;;3.80;;
43154;SDS011;34212;51.018;13.586;2023-05-10T11:19:03;11.25;;;3.78;;
43154;SDS011;34212;51.018;13.586;2023-05-10T11:24:20;6.85;;;3.40;;
43154;SDS011;34212;51.018;13.586;2023-05-10T11:29:23;5.97;;;3.15;;
43154;SDS011;34212;51.018;13.586;2023-05-10T11:34:39;5.60;;;3.53;;
43154;SDS011;34212;51.018;13.586;2023-05-10T11:39:45;7.70;;;3.33;;
43154;SDS011;34212;51.018;13.586;2023-05-10T11:44:51;10.98;;;4.30;;
43154;SDS011;34212;51.018;13.586;2023-05-10T11:50:01;3.47;;;3.00;;
43154;SDS011;34212;51.018;13.586;2023-05-10T11:55:09;5.65;;;4.85;;
43154;SDS011;34212;51.018;13.586;2023-05-10T12:06:50;7.75;;;4.00;;
43154;SDS011;34212;51.018;13.586;2023-05-10T12:11:55;6.60;;;4.78;;
43154;SDS011;34212;51.018;13.586;2023-05-10T12:17:00;13.45;;;5.18;;
43154;SDS011;34212;51.018;13.586;2023-05-10T12:22:04;10.00;;;3.88;;
43154;SDS011;34212;51.018;13.586;2023-05-10T12:27:09;4.97;;;3.58;;
43154;SDS011;34212;51.018;13.586;2023-05-10T12:32:11;8.27;;;3.30;;
43154;SDS011;34212;51.018;13.586;2023-05-10T12:37:13;5.63;;;3.28;;
43154;SDS011;34212;51.018;13.586;2023-05-10T12:42:15;10.68;;;3.40;;
43154;SDS011;34212;51.018;13.586;2023-05-10T12:47:17;8.70;;;4.18;;
43154;SDS011;34212;51.018;13.586;2023-05-10T12:52:19;5.18;;;4.35;;
43154;SDS011;34212;51.018;13.586;2023-05-10T12:57:20;5.82;;;4.88;;
43154;SDS011;34212;51.018;13.586;2023-05-10T13:02:22;6.60;;;4.95;;
43154;SDS011;34212;51.018;13.586;2023-05-10T13:07:24;6.10;;;4.03;;
43154;SDS011;34212;51.018;13.586;2023-05-10T13:12:26;6.90;;;4.50;;
43154;SDS011;34212;51.018;13.586;2023-05-10T13:17:27;6.53;;;4.30;;
43154;SDS011;34212;51.018;13.586;2023-05-10T13:22:29;4.18;;;3.45;;
43154;SDS011;34212;51.018;13.586;2023-05-10T13:27:40;12.05;;;4.43;;
43154;SDS011;34212;51.018;13.586;2023-05-10T13:32:42;8.13;;;4.40;;
43154;SDS011;34212;51.018;13.586;2023-05-10T13:37:43;6.55;;;4.65;;
43154;SDS011;34212;51.018;13.586;2023-05-10T13:42:45;5.30;;;4.78;;
43154;SDS011;34212;51.018;13.586;2023-05-10T13:47:47;7.85;;;3.83;;
43154;SDS011;34212;51.018;13.586;2023-05-10T13:52:48;7.40;;;3.85;;
43154;SDS011;34212;51.018;13.586;2023-05-10T13:57:50;4.85;;;4.10;;
43154;SDS011;34212;51.018;13.586;2023-05-10T14:02:51;5.07;;;3.90;;
43154;SDS011;34212;51.018;13.586;2023-05-10T14:07:53;4.35;;;3.95;;
43154;SDS011;34212;51.018;13.586;2023-05-10T14:12:55;6.25;;;4.13;;
43154;SDS011;34212;51.018;13.586;2023-05-10T14:17:56;4.38;;;3.90;;
43154;SDS011;34212;51.018;13.586;2023-05-10T14:22:58;4.80;;;3.13;;
43154;SDS011;34212;51.018;13.586;2023-05-10T14:27:59;6.60;;;2.88;;
43154;SDS011;34212;51.018;13.586;2023-05-10T14:33:01;3.90;;;3.00;;
43154;SDS011;34212;51.018;13.586;2023-05-10T14:38:03;3.63;;;3.10;;
43154;SDS011;34212;51.018;13.586;2023-05-10T14:43:05;3.40;;;2.60;;
43154;SDS011;34212;51.018;13.586;2023-05-10T14:48:06;5.13;;;2.65;;
43154;SDS011;34212;51.018;13.586;2023-05-10T14:53:12;3.38;;;3.00;;
43154;SDS011;34212;51.018;13.586;2023-05-10T14:58:13;4.47;;;3.53;;
43154;SDS011;34212;51.018;13.586;2023-05-10T15:03:15;3.73;;;3.33;;
43154;SDS011;34212;51.018;13.586;2023-05-10T15:08:17;5.75;;;3.25;;
43154;SDS011;34212;51.018;13.586;2023-05-10T15:13:19;6.50;;;3.30;;
43154;SDS011;34212;51.018;13.586;2023-05-10T15:18:20;4.90;;;3.07;;
43154;SDS011;34212;51.018;13.586;2023-05-10T15:23:23;4.63;;;3.40;;
43154;SDS011;34212;51.018;13.586;2023-05-10T15:28:25;7.25;;;3.28;;
43154;SDS011;34212;51.018;13.586;2023-05-10T15:33:26;5.55;;;3.13;;
43154;SDS011;34212;51.018;13.586;2023-05-10T15:38:28;4.43;;;3.80;;
43154;SDS011;34212;51.018;13.586;2023-05-10T15:43:30;7.35;;;3.97;;
43154;SDS011;34212;51.018;13.586;2023-05-10T15:48:31;4.43;;;4.00;;
43154;SDS011;34212;51.018;13.586;2023-05-10T15:53:33;5.50;;;3.35;;
43154;SDS011;34212;51.018;13.586;2023-05-10T15:58:35;5.80;;;4.23;;
43154;SDS011;34212;51.018;13.586;2023-05-10T16:03:36;5.43;;;4.37;;
43154;SDS011;34212;51.018;13.586;2023-05-10T16:08:38;8.70;;;4.60;;
43154;SDS011;34212;51.018;13.586;2023-05-10T16:13:39;11.03;;;5.10;;
43154;SDS011;34212;51.018;13.586;2023-05-10T16:18:41;6.90;;;4.25;;
43154;SDS011;34212;51.018;13.586;2023-05-10T16:23:42;7.60;;;3.83;;
43154;SDS011;34212;51.018;13.586;2023-05-10T16:28:47;5.45;;;4.00;;
43154;SDS011;34212;51.018;13.586;2023-05-10T16:38:50;6.68;;;4.47;;
43154;SDS011;34212;51.018;13.586;2023-05-10T16:43:51;5.93;;;4.80;;
43154;SDS011;34212;51.018;13.586;2023-05-10T16:48:53;11.23;;;3.83;;
43154;SDS011;34212;51.018;13.586;2023-05-10T16:53:54;11.83;;;3.87;;
43154;SDS011;34212;51.018;13.586;2023-05-10T16:58:56;6.17;;;3.93;;
43154;SDS011;34212;51.018;13.586;2023-05-10T17:03:57;4.57;;;3.17;;
43154;SDS011;34212;51.018;13.586;2023-05-10T17:08:59;5.23;;;3.07;;
43154;SDS011;34212;51.018;13.586;2023-05-10T17:14:01;4.77;;;2.97;;
43154;SDS011;34212;51.018;13.586;2023-05-10T17:19:02;3.27;;;2.97;;
43154;SDS011;34212;51.018;13.586;2023-05-10T17:24:04;3.60;;;2.50;;
43154;SDS011;34212;51.018;13.586;2023-05-10T17:29:06;4.00;;;3.07;;
43154;SDS011;34212;51.018;13.586;2023-05-10T17:34:07;4.07;;;3.22;;
43154;SDS011;34212;51.018;13.586;2023-05-10T17:39:09;3.33;;;2.73;;
43154;SDS011;34212;51.018;13.586;2023-05-10T17:44:11;3.85;;;2.75;;
43154;SDS011;34212;51.018;13.586;2023-05-10T17:54:15;3.30;;;2.87;;
43154;SDS011;34212;51.018;13.586;2023-05-10T17:59:16;2.90;;;2.37;;
43154;SDS011;34212;51.018;13.586;2023-05-10T18:04:18;2.93;;;2.53;;
43154;SDS011;34212;51.018;13.586;2023-05-10T18:09:19;3.77;;;2.40;;
43154;SDS011;34212;51.018;13.586;2023-05-10T18:14:21;6.50;;;2.10;;
43154;SDS011;34212;51.018;13.586;2023-05-10T18:19:40;3.20;;;2.30;;
43154;SDS011;34212;51.018;13.586;2023-05-10T18:24:42;2.83;;;2.20;;
43154;SDS011;34212;51.018;13.586;2023-05-10T18:29:44;3.45;;;2.33;;
43154;SDS011;34212;51.018;13.586;2023-05-10T18:34:46;2.83;;;2.17;;
43154;SDS011;34212;51.018;13.586;2023-05-10T18:39:48;2.20;;;2.00;;
43154;SDS011;34212;51.018;13.586;2023-05-10T18:44:50;3.15;;;2.20;;
43154;SDS011;34212;51.018;13.586;2023-05-10T18:49:52;3.35;;;2.58;;
43154;SDS011;34212;51.018;13.586;2023-05-10T18:54:53;3.63;;;2.80;;
43154;SDS011;34212;51.018;13.586;2023-05-10T18:59:55;3.60;;;3.00;;
43154;SDS011;34212;51.018;13.586;2023-05-10T19:04:56;3.63;;;3.00;;
43154;SDS011;34212;51.018;13.586;2023-05-10T19:09:59;3.70;;;3.22;;
43154;SDS011;34212;51.018;13.586;2023-05-10T19:15:01;3.53;;;3.10;;
43154;SDS011;34212;51.018;13.586;2023-05-10T19:20:03;3.87;;;3.20;;
43154;SDS011;34212;51.018;13.586;2023-05-10T19:25:06;4.38;;;2.95;;
43154;SDS011;34212;51.018;13.586;2023-05-10T19:30:08;3.72;;;2.83;;
43154;SDS011;34212;51.018;13.586;2023-05-10T19:35:09;3.30;;;2.60;;
43154;SDS011;34212;51.018;13.586;2023-05-10T19:40:13;3.00;;;2.55;;
43154;SDS011;34212;51.018;13.586;2023-05-10T19:45:16;4.07;;;3.47;;
43154;SDS011;34212;51.018;13.586;2023-05-10T19:50:18;4.63;;;3.78;;
43154;SDS011;34212;51.018;13.586;2023-05-10T19:55:26;5.82;;;4.20;;
43154;SDS011;34212;51.018;13.586;2023-05-10T20:00:30;5.72;;;2.78;;
43154;SDS011;34212;51.018;13.586;2023-05-10T20:05:32;3.85;;;3.25;;
43154;SDS011;34212;51.018;13.586;2023-05-10T20:10:33;4.78;;;3.90;;
43154;SDS011;34212;51.018;13.586;2023-05-10T20:15:34;6.47;;;4.20;;
43154;SDS011;34212;51.018;13.586;2023-05-10T20:20:36;4.57;;;4.00;;
43154;SDS011;34212;51.018;13.586;2023-05-10T20:25:38;4.47;;;4.03;;
43154;SDS011;34212;51.018;13.586;2023-05-10T20:30:39;4.67;;;4.07;;
43154;SDS011;34212;51.018;13.586;2023-05-10T20:35:41;4.27;;;3.50;;
43154;SDS011;34212;51.018;13.586;2023-05-10T20:40:42;4.00;;;3.40;;
43154;SDS011;34212;51.018;13.586;2023-05-10T20:45:44;4.20;;;3.53;;
43154;SDS011;34212;51.018;13.586;2023-05-10T20:50:46;4.37;;;3.57;;
43154;SDS011;34212;51.018;13.586;2023-05-10T20:55:48;4.83;;;3.87;;
43154;SDS011;34212;51.018;13.586;2023-05-10T21:00:49;5.13;;;4.60;;
43154;SDS011;34212;51.018;13.586;2023-05-10T21:05:51;4.35;;;3.92;;
43154;SDS011;34212;51.018;13.586;2023-05-10T21:10:52;5.18;;;4.38;;
43154;SDS011;34212;51.018;13.586;2023-05-10T21:15:54;6.43;;;4.63;;
43154;SDS011;34212;51.018;13.586;2023-05-10T21:20:56;7.93;;;4.97;;
43154;SDS011;34212;51.018;13.586;2023-05-10T21:25:58;8.32;;;5.53;;
43154;SDS011;34212;51.018;13.586;2023-05-10T21:31:00;5.53;;;4.50;;
43154;SDS011;34212;51.018;13.586;2023-05-10T21:36:02;6.45;;;4.90;;
43154;SDS011;34212;51.018;13.586;2023-05-10T21:41:07;5.93;;;4.43;;
43154;SDS011;34212;51.018;13.586;2023-05-10T21:46:08;5.57;;;4.50;;
43154;SDS011;34212;51.018;13.586;2023-05-10T21:51:10;7.30;;;5.30;;
43154;SDS011;34212;51.018;13.586;2023-05-10T21:56:12;4.45;;;3.85;;
